TFM - Tactical Decision Aid
ID: Runway Winds: CIG/VIS Threshold:

KHOB - Hobbs Arpt, NM, US

Updated at: 1409 UTC 22 Apr 2021
Latest TAF at: 1120 UTC 22 Apr 2021

TAF Board

Time<<23/03Z 23/04Z 23/05Z 23/06Z 23/07Z 23/08Z 23/09Z 23/10Z 23/11Z 23/12Z 23/13Z 23/14Z 23/15Z>>
Type PRVL PRVL PRVL PRVL PRVL PRVL PRVL PRVL PRVL
VIS >6 >6 >6 >6 >6 >6 >6 >6 >6
CIG -- -- -- -- -- -- -- -- --
Cover SCT SCT SCT SCT SCT SCT SCT SCT SCT
FltCat VFR VFR VFR VFR VFR VFR VFR VFR VFR
WX -- -- -- -- -- -- -- -- --
WDir 180 180 180 180 180 180 180 180 180
WSpd 14 14 14 14 14 14 14 14 14
WGst 22 22 22 22 22 22 22 22 22

TDA Impact Legend

  None Marginal Slight Moderate High
Visibility (sm) >5 3≤X≤5 2≤X<3 0.5≤X<2 <0.5
Ceiling (100 ft) >30 10≤X≤30 6≤X<10 2≤X<6 <2
Wind Speed (kt) <15 15≤X<25 25≤X<30 ≥30
Wind Gust (kt) <15 15≤X<25 25≤X<35 ≥35
Weather No Wx Reported VCTS -TS,-FZRA TS,FZRA +TS,+FZRA
TAF
KHOB 221120Z 2212/2312 11011KT P6SM SCT250
  FM221400 12013G21KT P6SM BKN050
  FM221800 18014G22KT P6SM SCT250


Radar Display
Forecast Discussion